1J6 weather

Public forecast

Using degrees Fahrenheit for public forecast. Weather courtesy of forecast.io.

Closest aviation weather report (METAR) to Bob Lee Flight Strip

Closest report is Deland Municipal Sidney H Taylor Field, 2.7 nm (5.1 km) SE. Retrieved 2020/08/13 11:35 UTC (12 minutes ago):

KDED 131135Z AUTO 00000KT 10SM CLR 25/24 A3005 RMK AO2 T02460239

Closest aviation forecast (TAF) to Bob Lee Flight Strip

Closest forecast is Daytona Beach International Airport, 14.1 nm (26.2 km) ENE. Retrieved 2020/08/13 06:37 UTC (5 hours ago):

TAF KDAB 130530Z 1306/1406 00000KT P6SM BKN200 FM131400 20006KT P6SM SCT035 SCT080 SCT250 FM131830 20010KT P6SM VCTS SCT035CB SCT080 BKN200 TEMPO 1319/1322 3SM TSRA BKN030CB BKN060 FM140100 17004KT P6SM VCSH SCT040 SCT100 BKN250 FM140400 VRB02KT P6SM SCT250